createdAt,value
2023-01-19T00:00:48.586Z,57.00
2023-01-19T00:03:20.006Z,52.60
2023-01-19T00:05:51.641Z,52.00
2023-01-19T00:08:23.113Z,50.80
2023-01-19T00:10:54.662Z,54.20
2023-01-19T00:13:26.339Z,56.30
2023-01-19T00:15:58.836Z,55.20
2023-01-19T00:18:30.865Z,57.40
2023-01-19T00:21:02.227Z,49.10
2023-01-19T00:23:33.714Z,54.50
2023-01-19T00:26:05.276Z,50.80
2023-01-19T00:28:36.841Z,51.10
2023-01-19T00:31:08.518Z,53.50
2023-01-19T00:33:39.911Z,51.60
2023-01-19T00:36:13.176Z,47.00
2023-01-19T00:38:44.914Z,49.00
2023-01-19T00:41:16.282Z,46.60
2023-01-19T00:43:47.903Z,47.00
2023-01-19T00:46:19.338Z,43.10
2023-01-19T00:48:50.886Z,41.90
2023-01-19T00:51:22.495Z,45.20
2023-01-19T00:53:55.329Z,46.70
2023-01-19T00:56:27.408Z,43.20
2023-01-19T00:58:58.750Z,38.00
2023-01-19T01:01:45.859Z,43.00
2023-01-19T01:04:18.050Z,45.30
2023-01-19T01:06:49.472Z,44.90
2023-01-19T01:09:21.140Z,39.50
2023-01-19T01:11:52.983Z,36.20
2023-01-19T01:14:25.273Z,44.40
2023-01-19T01:16:57.842Z,40.20
2023-01-19T01:19:29.570Z,43.80
2023-01-19T01:22:01.077Z,41.60
2023-01-19T01:24:32.510Z,42.20
2023-01-19T01:27:04.070Z,42.30
2023-01-19T01:29:36.015Z,42.20
2023-01-19T01:32:07.578Z,45.30
2023-01-19T01:34:40.831Z,41.50
2023-01-19T01:37:12.360Z,46.40
2023-01-19T01:39:43.797Z,42.00
2023-01-19T01:42:21.402Z,45.30
2023-01-19T01:44:56.608Z,42.10
2023-01-19T01:47:33.745Z,44.30
2023-01-19T01:50:10.638Z,48.10
2023-01-19T01:53:07.232Z,42.10
2023-01-19T01:55:43.412Z,47.40
2023-01-19T01:58:18.536Z,45.70
2023-01-19T02:01:07.355Z,45.80
2023-01-19T02:03:39.372Z,42.30
2023-01-19T02:06:12.268Z,42.60
2023-01-19T02:09:07.083Z,41.50
2023-01-19T02:11:56.376Z,46.40
2023-01-19T02:14:28.005Z,40.60
2023-01-19T02:16:59.779Z,39.80
2023-01-19T02:19:37.784Z,41.90
2023-01-19T02:22:14.417Z,45.80
2023-01-19T02:24:46.623Z,44.00
2023-01-19T02:27:18.531Z,45.20
2023-01-19T02:29:49.960Z,44.40
2023-01-19T02:32:21.547Z,42.90
2023-01-19T02:34:53.636Z,40.10
2023-01-19T02:37:26.090Z,42.00
2023-01-19T02:40:02.453Z,46.80
2023-01-19T02:42:38.970Z,43.40
2023-01-19T02:45:12.970Z,42.10
2023-01-19T02:47:48.397Z,43.00
2023-01-19T02:50:53.703Z,36.80
2023-01-19T02:53:46.191Z,39.70
2023-01-19T02:56:49.879Z,44.80
2023-01-19T02:59:44.462Z,43.30
2023-01-19T03:02:27.684Z,43.80
2023-01-19T03:05:10.219Z,46.20
2023-01-19T03:07:52.463Z,43.20
2023-01-19T03:10:33.882Z,43.20
2023-01-19T03:13:12.661Z,40.60
2023-01-19T03:15:50.217Z,43.50
2023-01-19T03:18:27.327Z,44.30
2023-01-19T03:21:01.386Z,48.70
2023-01-19T03:23:36.767Z,42.80
2023-01-19T03:26:12.895Z,44.90
2023-01-19T03:28:47.724Z,46.20
2023-01-19T03:33:54.350Z,42.70
2023-01-19T03:36:31.553Z,45.80
2023-01-19T03:39:06.754Z,47.60
2023-01-19T03:41:41.110Z,57.10
2023-01-19T03:44:13.005Z,54.20
2023-01-19T03:46:46.001Z,46.00
2023-01-19T03:49:18.009Z,48.70
2023-01-19T03:51:49.518Z,45.00
2023-01-19T03:54:20.932Z,47.40
2023-01-19T03:56:52.794Z,44.60
2023-01-19T03:59:24.478Z,44.10
2023-01-19T04:01:56.238Z,42.20
2023-01-19T04:04:27.688Z,44.70
2023-01-19T04:06:59.237Z,45.70
2023-01-19T04:09:30.778Z,40.50
2023-01-19T04:12:04.272Z,42.40
2023-01-19T04:14:35.955Z,47.00
2023-01-19T04:17:07.316Z,46.30
2023-01-19T04:19:38.996Z,45.10
2023-01-19T04:22:11.073Z,48.10
2023-01-19T04:24:42.438Z,53.30
2023-01-19T04:27:15.348Z,46.00
2023-01-19T04:29:46.836Z,56.30
2023-01-19T04:32:18.505Z,47.30
2023-01-19T04:35:27.712Z,47.20
2023-01-19T04:38:01.058Z,48.50
2023-01-19T04:40:32.469Z,46.80
2023-01-19T04:43:04.127Z,51.70
2023-01-19T04:45:36.853Z,51.70
2023-01-19T04:48:08.928Z,52.30
2023-01-19T04:50:42.433Z,54.60
2023-01-19T04:53:16.544Z,60.50
2023-01-19T04:55:48.345Z,55.10
2023-01-19T04:58:19.735Z,66.80
2023-01-19T05:00:52.423Z,69.80
2023-01-19T05:03:25.707Z,64.30
2023-01-19T05:05:59.927Z,58.40
2023-01-19T05:08:31.411Z,60.40
2023-01-19T05:11:02.922Z,57.00
2023-01-19T05:13:35.120Z,56.80
2023-01-19T05:16:07.488Z,63.60
2023-01-19T05:18:39.134Z,52.10
2023-01-19T05:21:11.000Z,53.40
2023-01-19T05:23:42.567Z,49.90
2023-01-19T05:26:14.424Z,50.90
2023-01-19T05:28:45.910Z,54.70
2023-01-19T05:31:18.791Z,54.60
2023-01-19T05:33:51.069Z,51.60
2023-01-19T05:36:22.531Z,48.60
2023-01-19T05:38:53.891Z,48.00
2023-01-19T05:41:25.430Z,51.50
2023-01-19T05:43:56.903Z,56.60
2023-01-19T05:46:28.453Z,53.90
2023-01-19T05:49:01.917Z,55.10
2023-01-19T05:51:38.122Z,45.90
2023-01-19T05:54:10.306Z,47.00
2023-01-19T05:56:41.690Z,49.70
2023-01-19T05:59:13.898Z,49.00
2023-01-19T06:01:45.620Z,49.50
2023-01-19T06:04:17.025Z,53.00
2023-01-19T06:06:50.492Z,51.00
2023-01-19T06:09:21.936Z,51.20
2023-01-19T06:11:54.518Z,50.90
2023-01-19T06:14:26.083Z,47.10
2023-01-19T06:16:57.485Z,50.80
2023-01-19T06:19:29.421Z,49.80
2023-01-19T06:22:01.009Z,46.10
2023-01-19T06:24:33.175Z,61.70
2023-01-19T06:27:04.697Z,81.30
2023-01-19T06:29:36.421Z,96.60
2023-01-19T06:32:08.431Z,108.90
2023-01-19T06:34:44.063Z,85.90
2023-01-19T06:37:16.440Z,70.90
2023-01-19T06:39:47.744Z,58.50
2023-01-19T06:42:19.167Z,56.10
2023-01-19T06:44:50.787Z,51.90
2023-01-19T06:47:22.267Z,50.60
2023-01-19T06:49:53.676Z,48.80
2023-01-19T06:52:25.110Z,52.70
2023-01-19T06:54:56.638Z,51.90
2023-01-19T06:57:28.222Z,49.60
2023-01-19T07:00:01.825Z,58.60
2023-01-19T07:02:33.305Z,48.70
2023-01-19T07:05:07.123Z,61.00
2023-01-19T07:07:39.974Z,61.90
2023-01-19T07:10:13.331Z,56.20
2023-01-19T07:12:46.814Z,51.00
2023-01-19T07:15:19.862Z,53.20
2023-01-19T07:17:51.758Z,56.80
2023-01-19T07:20:23.477Z,54.80
2023-01-19T07:22:59.181Z,46.30
2023-01-19T07:25:30.785Z,47.00
2023-01-19T07:28:03.115Z,60.20
2023-01-19T07:30:34.872Z,55.00
2023-01-19T07:33:06.410Z,54.70
2023-01-19T07:35:37.947Z,52.10
2023-01-19T07:38:09.425Z,57.60
2023-01-19T07:40:40.777Z,56.20
2023-01-19T07:43:12.234Z,63.10
2023-01-19T07:45:45.280Z,54.40
2023-01-19T07:48:16.831Z,57.00
2023-01-19T07:50:48.688Z,60.40
2023-01-19T07:53:20.302Z,56.20
2023-01-19T07:55:57.977Z,55.60
2023-01-19T07:58:29.606Z,53.30
2023-01-19T08:01:02.480Z,53.90
2023-01-19T08:03:33.893Z,62.30
2023-01-19T08:06:06.398Z,75.40
2023-01-19T08:08:38.102Z,84.50
2023-01-19T08:11:10.138Z,69.00
2023-01-19T08:13:41.716Z,73.50
2023-01-19T08:16:13.414Z,66.20
2023-01-19T08:18:45.126Z,63.40
2023-01-19T08:21:17.086Z,59.50
2023-01-19T08:23:55.680Z,60.50
2023-01-19T08:26:30.786Z,59.20
2023-01-19T08:29:03.904Z,55.60
2023-01-19T08:31:38.241Z,58.20
2023-01-19T08:34:10.182Z,69.50
2023-01-19T08:36:41.799Z,56.80
2023-01-19T08:39:14.442Z,52.70
2023-01-19T08:41:45.892Z,62.70
2023-01-19T08:44:17.505Z,57.90
2023-01-19T08:46:49.112Z,56.50
2023-01-19T08:49:20.934Z,61.30
2023-01-19T08:51:52.392Z,58.10
2023-01-19T08:54:24.481Z,57.80
2023-01-19T08:56:57.126Z,68.10
2023-01-19T08:59:28.662Z,50.10
2023-01-19T09:02:00.214Z,52.80
2023-01-19T09:04:33.244Z,61.10
2023-01-19T09:09:40.554Z,63.10
2023-01-19T09:12:12.151Z,78.90
2023-01-19T09:14:43.835Z,66.40
2023-01-19T09:17:18.319Z,67.60
2023-01-19T09:19:49.886Z,65.10
2023-01-19T09:22:21.349Z,66.00
2023-01-19T09:24:53.713Z,59.60
2023-01-19T09:27:25.203Z,58.60
2023-01-19T09:29:56.587Z,69.00
2023-01-19T09:32:29.709Z,69.40
2023-01-19T09:35:01.274Z,67.90
2023-01-19T09:37:32.892Z,68.00
2023-01-19T09:40:05.110Z,67.00
2023-01-19T09:42:44.995Z,64.60
2023-01-19T09:45:21.246Z,61.80
2023-01-19T09:47:53.905Z,62.70
2023-01-19T09:50:30.351Z,73.50
2023-01-19T09:53:11.710Z,64.80
2023-01-19T09:55:44.147Z,60.80
2023-01-19T09:58:19.528Z,57.50
2023-01-19T10:00:58.707Z,53.80
2023-01-19T10:03:30.777Z,62.10
2023-01-19T10:06:06.417Z,59.80
2023-01-19T10:08:43.129Z,63.20
2023-01-19T10:11:31.853Z,71.00
2023-01-19T10:14:14.953Z,67.60
2023-01-19T10:16:55.305Z,65.00
2023-01-19T10:19:38.128Z,60.00
2023-01-19T10:22:27.475Z,60.20
2023-01-19T10:25:01.745Z,63.10
2023-01-19T10:27:37.904Z,65.60
2023-01-19T10:30:16.898Z,77.90
2023-01-19T10:32:48.398Z,71.20
2023-01-19T10:35:24.849Z,65.90
2023-01-19T10:38:00.298Z,60.70
2023-01-19T10:40:36.714Z,65.50
2023-01-19T10:43:39.204Z,68.20
2023-01-19T10:46:18.714Z,71.90
2023-01-19T10:48:52.107Z,58.70
2023-01-19T10:51:24.141Z,59.70
2023-01-19T10:54:13.462Z,52.80
2023-01-19T10:56:45.097Z,49.90
2023-01-19T10:59:34.578Z,56.70
2023-01-19T11:02:19.834Z,59.70
2023-01-19T11:04:53.373Z,51.40
2023-01-19T11:07:30.892Z,60.70
2023-01-19T11:10:26.173Z,57.30
2023-01-19T11:13:07.808Z,57.30
2023-01-19T11:15:46.300Z,56.80
2023-01-19T11:18:32.307Z,54.70
2023-01-19T11:21:06.776Z,53.10
2023-01-19T11:23:43.309Z,57.40
2023-01-19T11:26:26.189Z,53.40
2023-01-19T11:28:59.240Z,54.10
2023-01-19T11:31:38.583Z,55.60
2023-01-19T11:34:28.236Z,54.10
2023-01-19T11:37:04.829Z,52.70
2023-01-19T11:39:49.540Z,61.00
2023-01-19T11:42:23.019Z,58.70
2023-01-19T11:45:04.730Z,59.00
2023-01-19T11:47:43.169Z,53.80
2023-01-19T11:50:25.727Z,53.90
2023-01-19T11:53:02.983Z,50.50
2023-01-19T11:55:41.490Z,55.00
2023-01-19T11:58:18.705Z,49.90
2023-01-19T12:00:55.627Z,48.20
2023-01-19T12:03:31.851Z,54.90
2023-01-19T12:06:07.592Z,52.70
2023-01-19T12:08:43.534Z,50.00
2023-01-19T12:11:19.915Z,52.90
2023-01-19T12:13:54.217Z,60.60
2023-01-19T12:16:28.504Z,54.30
2023-01-19T12:19:05.285Z,53.00
2023-01-19T12:21:37.210Z,52.90
2023-01-19T12:24:17.589Z,62.00
2023-01-19T12:26:54.582Z,52.30
2023-01-19T12:29:30.326Z,60.90
2023-01-19T12:32:33.701Z,50.90
2023-01-19T12:35:05.243Z,61.00
2023-01-19T12:37:41.199Z,57.20
2023-01-19T12:40:35.742Z,60.70
2023-01-19T12:43:09.283Z,57.50
2023-01-19T12:45:41.235Z,56.20
2023-01-19T12:48:28.481Z,56.80
2023-01-19T12:50:59.895Z,55.10
2023-01-19T12:53:32.156Z,54.20
2023-01-19T12:56:10.341Z,55.00
2023-01-19T12:58:49.351Z,56.20
2023-01-19T13:01:25.168Z,50.00
2023-01-19T13:04:06.922Z,50.30
2023-01-19T13:07:14.016Z,51.00
2023-01-19T13:09:45.385Z,58.20
2023-01-19T13:12:27.838Z,56.00
2023-01-19T13:15:35.622Z,50.70
2023-01-19T13:18:09.893Z,48.60
2023-01-19T13:20:49.628Z,50.30
2023-01-19T13:23:29.400Z,46.70
2023-01-19T13:26:07.064Z,50.20
2023-01-19T13:28:46.837Z,50.20
2023-01-19T13:31:19.381Z,51.10
2023-01-19T13:33:54.433Z,46.60
2023-01-19T13:36:33.257Z,48.70
2023-01-19T13:39:07.997Z,48.70
2023-01-19T13:44:19.747Z,46.50
2023-01-19T13:46:51.894Z,42.40
2023-01-19T13:49:28.655Z,48.10
2023-01-19T13:52:14.043Z,50.10
2023-01-19T13:54:56.318Z,48.90
2023-01-19T13:57:33.035Z,48.80
2023-01-19T14:00:21.302Z,57.60
2023-01-19T14:02:59.148Z,56.20
2023-01-19T14:05:32.993Z,51.60
2023-01-19T14:08:13.693Z,48.40
2023-01-19T14:10:47.421Z,50.00
2023-01-19T14:13:21.851Z,52.10
2023-01-19T14:15:58.035Z,50.30
2023-01-19T14:18:31.999Z,56.40
2023-01-19T14:21:06.454Z,50.00
2023-01-19T14:23:49.908Z,54.30
2023-01-19T14:26:49.333Z,55.70
2023-01-19T14:29:25.886Z,50.10
2023-01-19T14:32:13.051Z,58.30
2023-01-19T14:34:46.257Z,48.70
2023-01-19T14:37:24.609Z,50.10
2023-01-19T14:40:00.674Z,54.40
2023-01-19T14:42:34.988Z,48.90
2023-01-19T14:45:15.606Z,53.70
2023-01-19T14:47:54.578Z,46.30
2023-01-19T14:50:28.872Z,56.30
2023-01-19T14:53:04.807Z,55.80
2023-01-19T14:55:44.774Z,61.60
2023-01-19T14:58:17.620Z,64.00
2023-01-19T15:00:50.039Z,62.00
2023-01-19T15:03:24.970Z,67.30
2023-01-19T15:06:00.462Z,59.10
2023-01-19T15:08:34.733Z,70.30
2023-01-19T15:11:11.859Z,60.40
2023-01-19T15:13:45.297Z,60.00
2023-01-19T15:16:28.105Z,62.20
2023-01-19T15:19:04.948Z,55.20
2023-01-19T15:21:49.760Z,58.00
2023-01-19T15:24:32.149Z,57.60
2023-01-19T15:27:06.148Z,57.90
2023-01-19T15:29:42.265Z,58.00
2023-01-19T15:32:20.165Z,61.60
2023-01-19T15:34:54.490Z,56.10
2023-01-19T15:37:36.281Z,62.80
2023-01-19T15:40:14.419Z,64.50
2023-01-19T15:42:52.011Z,59.40
2023-01-19T15:45:40.811Z,55.50
2023-01-19T15:48:15.127Z,58.90
2023-01-19T15:51:02.089Z,59.60
2023-01-19T15:53:40.359Z,60.30
2023-01-19T15:56:18.405Z,62.40
2023-01-19T15:58:58.439Z,64.10
2023-01-19T16:01:38.066Z,58.50
2023-01-19T16:04:18.027Z,58.80
2023-01-19T16:07:06.171Z,60.30
2023-01-19T16:09:43.025Z,54.80
2023-01-19T16:12:17.941Z,53.60
2023-01-19T16:15:10.835Z,68.50
2023-01-19T16:17:47.905Z,62.00
2023-01-19T16:20:30.268Z,61.00
2023-01-19T16:23:17.324Z,59.50
2023-01-19T16:26:03.697Z,62.40
2023-01-19T16:28:38.324Z,61.10
2023-01-19T16:31:17.297Z,66.60
2023-01-19T16:33:51.994Z,61.90
2023-01-19T16:36:34.730Z,59.70
2023-01-19T16:39:13.500Z,51.70
2023-01-19T16:41:49.747Z,63.80
2023-01-19T16:44:21.923Z,63.60
2023-01-19T16:46:55.910Z,63.50
2023-01-19T16:49:36.235Z,63.00
2023-01-19T16:52:16.715Z,72.10
2023-01-19T16:54:49.644Z,67.70
2023-01-19T16:57:21.936Z,66.30
2023-01-19T17:00:11.679Z,71.30
2023-01-19T17:02:58.431Z,62.20
2023-01-19T17:05:31.413Z,65.10
2023-01-19T17:08:14.613Z,76.30
2023-01-19T17:10:52.117Z,66.00
2023-01-19T17:13:39.660Z,66.90
2023-01-19T17:16:23.377Z,65.50
2023-01-19T17:19:10.105Z,63.90
2023-01-19T17:21:52.003Z,66.20
2023-01-19T17:24:25.216Z,63.90
2023-01-19T17:27:01.393Z,62.90
2023-01-19T17:29:43.430Z,59.50
2023-01-19T17:32:24.994Z,70.70
2023-01-19T17:35:04.613Z,66.90
2023-01-19T17:37:49.671Z,61.00
2023-01-19T17:40:33.815Z,90.80
2023-01-19T17:43:18.963Z,89.70
2023-01-19T17:48:38.500Z,76.40
2023-01-19T17:51:15.439Z,61.70
2023-01-19T17:53:53.748Z,60.70
2023-01-19T17:56:33.250Z,68.00
2023-01-19T17:59:17.090Z,63.90
2023-01-19T18:02:09.038Z,66.80
2023-01-19T18:05:27.675Z,59.90
2023-01-19T18:08:09.690Z,63.00
2023-01-19T18:11:08.231Z,62.80
2023-01-19T18:13:54.285Z,62.30
2023-01-19T18:16:37.832Z,56.50
2023-01-19T18:19:23.563Z,58.60
2023-01-19T18:22:06.523Z,71.40
2023-01-19T18:25:11.228Z,72.40
2023-01-19T18:28:04.348Z,66.70
2023-01-19T18:31:16.601Z,65.70
2023-01-19T18:33:56.473Z,53.20
2023-01-19T18:36:47.681Z,56.60
2023-01-19T18:39:34.018Z,54.60
2023-01-19T18:42:15.907Z,55.80
2023-01-19T18:44:57.767Z,56.50
2023-01-19T18:47:56.299Z,65.60
2023-01-19T18:50:34.515Z,66.60
2023-01-19T18:53:18.024Z,56.00
2023-01-19T18:56:17.611Z,58.40
2023-01-19T18:58:57.423Z,48.50
2023-01-19T19:01:43.893Z,53.40
2023-01-19T19:04:42.754Z,59.60
2023-01-19T19:07:30.903Z,47.70
2023-01-19T19:10:27.810Z,53.60
2023-01-19T19:13:08.289Z,59.60
2023-01-19T19:15:45.727Z,60.50
2023-01-19T19:18:25.007Z,55.60
2023-01-19T19:21:16.794Z,60.40
2023-01-19T19:24:14.479Z,55.50
2023-01-19T19:27:12.045Z,58.30
2023-01-19T19:29:50.052Z,53.60
2023-01-19T19:32:48.891Z,52.90
2023-01-19T19:35:43.939Z,58.40
2023-01-19T19:38:39.502Z,56.10
2023-01-19T19:43:58.070Z,59.70
2023-01-19T19:46:44.001Z,56.90
2023-01-19T19:49:42.208Z,59.10
2023-01-19T19:55:31.337Z,54.10
2023-01-19T19:58:12.406Z,59.70
2023-01-19T20:00:50.404Z,58.90
2023-01-19T20:03:49.904Z,61.50
2023-01-19T20:07:06.867Z,64.40
2023-01-19T20:09:54.563Z,59.90
2023-01-19T20:12:27.843Z,61.70
2023-01-19T20:15:01.042Z,52.50
2023-01-19T20:17:36.222Z,59.80
2023-01-19T20:20:16.265Z,59.80
2023-01-19T20:22:57.773Z,60.60
2023-01-19T20:25:36.872Z,56.50
2023-01-19T20:28:15.564Z,57.20
2023-01-19T20:30:49.848Z,57.00
2023-01-19T20:33:28.306Z,56.90
2023-01-19T20:36:05.152Z,56.40
2023-01-19T20:38:37.918Z,54.20
2023-01-19T20:41:15.445Z,57.80
2023-01-19T20:43:49.755Z,64.50
2023-01-19T20:46:26.909Z,54.30
2023-01-19T20:49:00.149Z,49.00
2023-01-19T20:51:32.995Z,52.10
2023-01-19T20:54:06.663Z,53.10
2023-01-19T20:56:43.945Z,64.50
2023-01-19T20:59:20.819Z,54.90
2023-01-19T21:01:55.100Z,61.00
2023-01-19T21:04:34.411Z,57.70
2023-01-19T21:07:11.381Z,54.90
2023-01-19T21:09:46.794Z,61.90
2023-01-19T21:12:25.994Z,58.10
2023-01-19T21:15:01.796Z,57.70
2023-01-19T21:17:50.683Z,57.80
2023-01-19T21:20:52.660Z,60.00
2023-01-19T21:23:28.321Z,61.70
2023-01-19T21:26:08.631Z,61.90
2023-01-19T21:28:52.411Z,60.30
2023-01-19T21:31:45.619Z,61.40
2023-01-19T21:34:24.195Z,65.60
2023-01-19T21:37:08.664Z,57.60
2023-01-19T21:39:42.612Z,56.70
2023-01-19T21:42:18.281Z,63.00
2023-01-19T21:44:50.411Z,61.60
2023-01-19T21:47:24.328Z,62.30
2023-01-19T21:50:04.960Z,59.60
2023-01-19T21:52:36.951Z,63.00
2023-01-19T21:55:14.379Z,58.80
2023-01-19T21:57:59.413Z,61.40
2023-01-19T22:00:32.259Z,60.60
2023-01-19T22:03:06.170Z,63.50
2023-01-19T22:05:44.506Z,57.70
2023-01-19T22:08:18.476Z,59.20
2023-01-19T22:11:04.947Z,67.10
2023-01-19T22:13:38.856Z,52.40
2023-01-19T22:16:14.183Z,56.50
2023-01-19T22:18:51.679Z,65.40
2023-01-19T22:21:27.155Z,56.40
2023-01-19T22:24:07.266Z,56.10
2023-01-19T22:26:39.566Z,67.60
2023-01-19T22:29:13.884Z,54.10
2023-01-19T22:31:49.230Z,60.50
2023-01-19T22:34:33.625Z,55.80
2023-01-19T22:37:13.621Z,57.20
2023-01-19T22:39:47.415Z,66.40
2023-01-19T22:42:21.449Z,61.10
2023-01-19T22:44:53.251Z,55.20
2023-01-19T22:47:36.400Z,70.90
2023-01-19T22:50:10.650Z,69.40
2023-01-19T22:52:45.610Z,70.60
2023-01-19T22:55:22.195Z,79.60
2023-01-19T22:57:54.314Z,76.50
2023-01-19T23:00:37.733Z,73.50
2023-01-19T23:03:11.986Z,83.00
2023-01-19T23:05:48.119Z,79.50
2023-01-19T23:08:21.566Z,76.50
2023-01-19T23:10:59.725Z,90.80
2023-01-19T23:13:35.042Z,79.00
2023-01-19T23:16:12.376Z,83.20
2023-01-19T23:18:45.203Z,82.20
2023-01-19T23:21:20.967Z,81.20
2023-01-19T23:24:07.243Z,98.20
2023-01-19T23:26:43.684Z,89.70
2023-01-19T23:29:18.412Z,94.50
2023-01-19T23:31:57.943Z,90.60
2023-01-19T23:34:31.653Z,95.70
2023-01-19T23:37:14.423Z,92.10
2023-01-19T23:39:49.672Z,96.40
2023-01-19T23:42:30.613Z,89.40
2023-01-19T23:45:04.602Z,86.60
2023-01-19T23:47:44.492Z,93.90
2023-01-19T23:50:24.025Z,93.50
2023-01-19T23:53:02.388Z,93.00
2023-01-19T23:55:36.799Z,90.40
2023-01-19T23:58:11.423Z,85.80
